^^
Datos históricos de la estación: Murcia-Puente Tocinos
Diario Informe para Agosto 14, 2019 Unidades:  Ambas    Ingés   Métrico
Diario Semanal Mensual Anual
  Máxima: Mínima: Promedio:
Temperatura: 85.3 °F /  29.6 °C 66.9 °F /  19.4 °C 75.9 °F /  24.4 °C
Punto de rocio: 63.7 °F /  17.6 °C 52.2 °F /  11.2 °C 57.7 °F /  14.3 °C
Humedad: 86% 35% 55%
Velocidad viento: 12.5mph /  20.1km/h - 6mph /  9.6km/h
Racha viento: 22.3mph /  35.9km/h - -
Viento- - Sur
Presión: 29.9 in /  1011.6 hPa 29.7 in /  1007.3 hPa -
Precipitación: 0.06 in /  1.5 mm    
 
 
Tabla de datos para Agosto 14, 2019
Hora Temperatura Punto de rocio Presión Viento Velocidad viento Racha viento Humedad Intensidad lluvia(por hora) Nubes
00:04 69.6 °F /  20.9 °C 57.4 °F /  14.1 °C 29.8in /  1009.1hPa Calm   3.6mph /  5.8km/h 65% 0in /  0.0mm
00:09 69.6 °F /  20.9 °C 57.2 °F /  14 °C 29.8in /  1009.1hPa OSO 0.4mph /  0.7km/h 4mph /  6.4km/h 64.8% 0in /  0.0mm
00:14 69.6 °F /  20.9 °C 56.8 °F /  13.8 °C 29.8in /  1009.1hPa OSO 1.4mph /  2.2km/h 4mph /  6.4km/h 64% 0in /  0.0mm
00:19 69.6 °F /  20.9 °C 56.8 °F /  13.8 °C 29.8in /  1009.1hPa OSO 0.9mph /  1.5km/h 4mph /  6.4km/h 64% 0in /  0.0mm
00:24 69.8 °F /  21 °C 57 °F /  13.9 °C 29.8in /  1008.8hPa Calm   5mph /  8km/h 63.9% 0in /  0.0mm
00:29 69.8 °F /  21 °C 56.8 °F /  13.8 °C 29.8in /  1008.8hPa Oeste 0.8mph /  1.3km/h 5.2mph /  8.4km/h 63.3% 0in /  0.0mm
00:34 70 °F /  21.1 °C 57 °F /  13.9 °C 29.8in /  1008.8hPa Oeste 2.4mph /  3.9km/h 5mph /  8km/h 63.4% 0in /  0.0mm
00:39 70 °F /  21.1 °C 56.8 °F /  13.8 °C 29.8in /  1008.8hPa Oeste 2.4mph /  3.9km/h 9.2mph /  14.8km/h 63% 0in /  0.0mm
00:44 70 °F /  21.1 °C 56.5 °F /  13.6 °C 29.8in /  1008.8hPa OSO 2.4mph /  3.9km/h 9.2mph /  14.8km/h 62.1% 0in /  0.0mm
00:49 70 °F /  21.1 °C 56.3 °F /  13.5 °C 29.8in /  1008.8hPa OSO 3.2mph /  5.1km/h 9mph /  14.5km/h 62% 0in /  0.0mm
00:54 70 °F /  21.1 °C 56.5 °F /  13.6 °C 29.8in /  1008.7hPa SO 4.7mph /  7.6km/h 9mph /  14.5km/h 62% 0in /  0.0mm
00:59 70 °F /  21.1 °C 56.5 °F /  13.6 °C 29.8in /  1008.7hPa SO 4.9mph /  7.9km/h 9.7mph /  15.6km/h 62% 0in /  0.0mm
01:04 70 °F /  21.1 °C 56.5 °F /  13.6 °C 29.8in /  1008.7hPa SO 5.2mph /  8.4km/h 10mph /  16.1km/h 62% 0in /  0.0mm
01:09 70 °F /  21.1 °C 56.5 °F /  13.6 °C 29.8in /  1008.7hPa SO 5.3mph /  8.5km/h 10mph /  16.1km/h 62% 0in /  0.0mm
01:14 70 °F /  21.1 °C 55.9 °F /  13.3 °C 29.8in /  1008.7hPa SO 5.4mph /  8.7km/h 10.7mph /  17.2km/h 61.1% 0in /  0.0mm
01:19 70 °F /  21.1 °C 55.6 °F /  13.1 °C 29.8in /  1008.7hPa SO 5.7mph /  9.2km/h 11.5mph /  18.5km/h 60.1% 0in /  0.0mm
01:24 70 °F /  21.1 °C 55.6 °F /  13.1 °C 29.8in /  1008.5hPa SO 6.4mph /  10.3km/h 12mph /  19.3km/h 60% 0in /  0.0mm
01:29 70 °F /  21.1 °C 55.4 °F /  13 °C 29.8in /  1008.5hPa SO 6.4mph /  10.3km/h 12mph /  19.3km/h 60% 0in /  0.0mm
01:34 69.8 °F /  21 °C 55.2 °F /  12.9 °C 29.8in /  1008.5hPa SO 6.4mph /  10.3km/h 13.8mph /  22.2km/h 60% 0in /  0.0mm
01:39 69.6 °F /  20.9 °C 55 °F /  12.8 °C 29.8in /  1008.4hPa SO 6.4mph /  10.3km/h 14mph /  22.5km/h 60% 0in /  0.0mm
01:44 69.6 °F /  20.9 °C 55 °F /  12.8 °C 29.8in /  1008.4hPa SO 6.4mph /  10.3km/h 12.7mph /  20.4km/h 60% 0in /  0.0mm
01:49 69.6 °F /  20.9 °C 54.9 °F /  12.7 °C 29.8in /  1008.4hPa SO 6.4mph /  10.3km/h 14mph /  22.5km/h 59.5% 0in /  0.0mm
01:54 69.8 °F /  21 °C 54.9 °F /  12.7 °C 29.8in /  1008.3hPa SO 6.4mph /  10.3km/h 14mph /  22.5km/h 59% 0in /  0.0mm
01:59 70 °F /  21.1 °C 55 °F /  12.8 °C 29.8in /  1008.3hPa OSO 6.6mph /  10.6km/h 13mph /  20.9km/h 59% 0in /  0.0mm
02:04 70 °F /  21.1 °C 55 °F /  12.8 °C 29.8in /  1008.3hPa SO 6.9mph /  11.1km/h 12.7mph /  20.4km/h 59% 0in /  0.0mm
02:09 70 °F /  21.1 °C 55 °F /  12.8 °C 29.8in /  1008.1hPa SO 6.7mph /  10.8km/h 13mph /  20.9km/h 58.9% 0in /  0.0mm
02:14 70 °F /  21.1 °C 54.7 °F /  12.6 °C 29.8in /  1008.1hPa SSO 6.2mph /  10km/h 10.4mph /  16.7km/h 58.2% 0in /  0.0mm
02:19 70 °F /  21.1 °C 54.5 °F /  12.5 °C 29.8in /  1008.3hPa SSO 6.6mph /  10.6km/h 11.8mph /  19km/h 58% 0in /  0.0mm
02:24 70 °F /  21.1 °C 54.5 °F /  12.5 °C 29.8in /  1008.3hPa SSO 7.4mph /  11.9km/h 12mph /  19.3km/h 58% 0in /  0.0mm
02:29 70.2 °F /  21.2 °C 54.7 °F /  12.6 °C 29.8in /  1008.3hPa SSO 7.2mph /  11.6km/h 13.8mph /  22.2km/h 58% 0in /  0.0mm
02:34 70.3 °F /  21.3 °C 54.9 °F /  12.7 °C 29.8in /  1008.4hPa SSO 6.9mph /  11.1km/h 14mph /  22.5km/h 58% 0in /  0.0mm
02:39 70.3 °F /  21.3 °C 54.9 °F /  12.7 °C 29.8in /  1008.4hPa SSO 7.4mph /  11.9km/h 17.3mph /  27.8km/h 58% 0in /  0.0mm
02:44 70.5 °F /  21.4 °C 55 °F /  12.8 °C 29.8in /  1008.4hPa SSO 8.5mph /  13.7km/h 17mph /  27.4km/h 58% 0in /  0.0mm
02:49 70.7 °F /  21.5 °C 55.2 °F /  12.9 °C 29.8in /  1008.4hPa SO 8.5mph /  13.7km/h 16.1mph /  25.9km/h 58% 0in /  0.0mm
02:54 70.9 °F /  21.6 °C 55.4 °F /  13 °C 29.8in /  1008.4hPa OSO 8.5mph /  13.7km/h 18.4mph /  29.6km/h 58% 0in /  0.0mm
02:59 70.9 °F /  21.6 °C 55.4 °F /  13 °C 29.8in /  1008.4hPa OSO 9.1mph /  14.7km/h 22.3mph /  35.9km/h 58% 0in /  0.0mm
03:04 70.9 °F /  21.6 °C 55.9 °F /  13.3 °C 29.8in /  1008.4hPa OSO 10.2mph /  16.4km/h 22mph /  35.4km/h 59.4% 0in /  0.0mm
03:09 70.9 °F /  21.6 °C 57 °F /  13.9 °C 29.8in /  1007.6hPa SO 10.1mph /  16.3km/h 21mph /  33.8km/h 61.6% 0in /  0.0mm
03:14 70.9 °F /  21.6 °C 57.7 °F /  14.3 °C 29.8in /  1007.6hPa SO 10mph /  16.1km/h 16mph /  25.7km/h 62.9% 0in /  0.0mm
03:19 70.9 °F /  21.6 °C 58.1 °F /  14.5 °C 29.8in /  1008.0hPa SSO 9.1mph /  14.7km/h 13mph /  20.9km/h 63.9% 0in /  0.0mm
03:24 70.9 °F /  21.6 °C 58.5 °F /  14.7 °C 29.8in /  1008.0hPa Sur 7.4mph /  11.9km/h 13.8mph /  22.2km/h 64.9% 0in /  0.0mm
03:29 70.9 °F /  21.6 °C 58.8 °F /  14.9 °C 29.8in /  1008.0hPa Sur 7.2mph /  11.6km/h 14mph /  22.5km/h 65.8% 0in /  0.0mm
03:34 70.7 °F /  21.5 °C 58.8 °F /  14.9 °C 29.8in /  1008.0hPa SSO 6.9mph /  11.1km/h 11.8mph /  19km/h 66% 0in /  0.0mm
03:39 70.7 °F /  21.5 °C 58.8 °F /  14.9 °C 29.8in /  1007.8hPa SO 7.1mph /  11.4km/h 14mph /  22.5km/h 66% 0in /  0.0mm
03:44 70.5 °F /  21.4 °C 58.6 °F /  14.8 °C 29.8in /  1007.8hPa SSO 7.4mph /  11.9km/h 14mph /  22.5km/h 66% 0in /  0.0mm
03:49 70.5 °F /  21.4 °C 58.6 °F /  14.8 °C 29.8in /  1007.8hPa SSO 7.8mph /  12.6km/h 14mph /  22.5km/h 66.3% 0in /  0.0mm
03:54 70.3 °F /  21.3 °C 58.8 °F /  14.9 °C 29.7in /  1007.3hPa Sur 8.7mph /  14km/h 13mph /  20.9km/h 67% 0in /  0.0mm
03:59 70.2 °F /  21.2 °C 58.8 °F /  14.9 °C 29.7in /  1007.3hPa Sur 8.5mph /  13.7km/h 13mph /  20.9km/h 67.5% 0in /  0.0mm
04:04 70.2 °F /  21.2 °C 58.6 °F /  14.8 °C 29.8in /  1007.7hPa Sur 8.1mph /  13km/h 13mph /  20.9km/h 67% 0in /  0.0mm
04:09 70.2 °F /  21.2 °C 58.6 °F /  14.8 °C 29.8in /  1007.7hPa SSO 7.5mph /  12.1km/h 12mph /  19.3km/h 67% 0in /  0.0mm
04:14 70.2 °F /  21.2 °C 58.6 °F /  14.8 °C 29.8in /  1007.7hPa SSE 6.4mph /  10.3km/h 12mph /  19.3km/h 67% 0in /  0.0mm
04:19 70.2 °F /  21.2 °C 58.8 °F /  14.9 °C 29.8in /  1007.7hPa SSO 6mph /  9.7km/h 8.1mph /  13km/h 67.6% 0in /  0.0mm
04:24 70 °F /  21.1 °C 59.2 °F /  15.1 °C 29.7in /  1007.3hPa SO 5.2mph /  8.4km/h 8.1mph /  13km/h 68.5% 0in /  0.0mm
04:29 69.8 °F /  21 °C 59.2 °F /  15.1 °C 29.7in /  1007.3hPa SO 5.2mph /  8.4km/h 8.5mph /  13.7km/h 69% 0in /  0.0mm
04:34 69.8 °F /  21 °C 59.2 °F /  15.1 °C 29.8in /  1007.4hPa SSO 5.2mph /  8.4km/h 10mph /  16.1km/h 68.9% 0in /  0.0mm
04:39 70 °F /  21.1 °C 59.2 °F /  15.1 °C 29.8in /  1007.4hPa SSO 5.2mph /  8.4km/h 10.4mph /  16.7km/h 68.9% 0in /  0.0mm
04:44 70 °F /  21.1 °C 59.4 °F /  15.2 °C 29.8in /  1007.4hPa SSE 5.2mph /  8.4km/h 10mph /  16.1km/h 69% 0in /  0.0mm
04:49 70 °F /  21.1 °C 59.4 °F /  15.2 °C 29.8in /  1007.5hPa SE 4.9mph /  7.9km/h 9mph /  14.5km/h 69% 0in /  0.0mm
04:54 70 °F /  21.1 °C 59.4 °F /  15.2 °C 29.8in /  1007.5hPa SO 4.3mph /  6.9km/h 6.9mph /  11.1km/h 69% 0in /  0.0mm
04:59 70 °F /  21.1 °C 59.4 °F /  15.2 °C 29.8in /  1007.5hPa SSO 4.3mph /  6.9km/h 8.1mph /  13km/h 69% 0in /  0.0mm
05:04 70 °F /  21.1 °C 59.2 °F /  15.1 °C 29.8in /  1007.8hPa Sur 4.3mph /  6.9km/h 10mph /  16.1km/h 69% 0in /  0.0mm
05:09 70 °F /  21.1 °C 59.4 °F /  15.2 °C 29.8in /  1007.8hPa Sur 4.8mph /  7.8km/h 10.4mph /  16.7km/h 69% 0in /  0.0mm
05:14 70 °F /  21.1 °C 59.4 °F /  15.2 °C 29.8in /  1007.8hPa Sur 5.9mph /  9.5km/h 9.2mph /  14.8km/h 69.1% 0in /  0.0mm
05:19 70 °F /  21.1 °C 59.7 °F /  15.4 °C 29.8in /  1007.9hPa SSO 5.9mph /  9.5km/h 10mph /  16.1km/h 70% 0in /  0.0mm
05:24 69.8 °F /  21 °C 59.5 °F /  15.3 °C 29.8in /  1007.9hPa SSO 5.9mph /  9.5km/h 9mph /  14.5km/h 70% 0in /  0.0mm
05:29 70 °F /  21.1 °C 59.7 °F /  15.4 °C 29.8in /  1007.9hPa OSO 5.6mph /  9km/h 7mph /  11.3km/h 70% 0in /  0.0mm
05:34 70 °F /  21.1 °C 59.5 °F /  15.3 °C 29.8in /  1007.9hPa SSO 4.7mph /  7.6km/h 8.1mph /  13km/h 69.8% 0in /  0.0mm
05:39 70.2 °F /  21.2 °C 59.5 °F /  15.3 °C 29.8in /  1007.9hPa Sur 4.7mph /  7.6km/h 8.5mph /  13.7km/h 69% 0in /  0.0mm
05:44 70.2 °F /  21.2 °C 59.4 °F /  15.2 °C 29.8in /  1007.9hPa Sur 4.7mph /  7.6km/h 9.2mph /  14.8km/h 68.6% 0in /  0.0mm
05:49 70.3 °F /  21.3 °C 59.4 °F /  15.2 °C 29.8in /  1008.1hPa Sur 4.8mph /  7.8km/h 9mph /  14.5km/h 68% 0in /  0.0mm
05:54 70.3 °F /  21.3 °C 59.2 °F /  15.1 °C 29.8in /  1008.1hPa Sur 5.2mph /  8.4km/h 7mph /  11.3km/h 67.9% 0in /  0.0mm
05:59 70.2 °F /  21.2 °C 59 °F /  15 °C 29.8in /  1008.1hPa Sur 4.8mph /  7.7km/h 6.2mph /  10km/h 67.9% 0in /  0.0mm
06:04 70.2 °F /  21.2 °C 58.8 °F /  14.9 °C 29.8in /  1008.4hPa SSO 4mph /  6.5km/h 6mph /  9.7km/h 67.4% 0in /  0.0mm
06:09 70.2 °F /  21.2 °C 58.6 °F /  14.8 °C 29.8in /  1008.4hPa Sur 3.7mph /  5.9km/h 6.9mph /  11.1km/h 67% 0in /  0.0mm
06:14 70.2 °F /  21.2 °C 59 °F /  15 °C 29.8in /  1008.4hPa SO 2.9mph /  4.7km/h 7mph /  11.3km/h 67.9% 0in /  0.0mm
06:19 70.2 °F /  21.2 °C 59.2 °F /  15.1 °C 29.8in /  1008.6hPa OSO 3.3mph /  5.3km/h 8.1mph /  13km/h 68% 0in /  0.0mm
06:24 70.2 °F /  21.2 °C 59.2 °F /  15.1 °C 29.8in /  1008.6hPa SO 4mph /  6.5km/h 8mph /  12.9km/h 68% 0in /  0.0mm
06:29 70.2 °F /  21.2 °C 58.8 °F /  14.9 °C 29.8in /  1008.6hPa SSO 3.5mph /  5.6km/h 5mph /  8km/h 67.5% 0in /  0.0mm
06:34 70.2 °F /  21.2 °C 58.6 °F /  14.8 °C 29.8in /  1008.7hPa SSO 2.4mph /  3.9km/h 6mph /  9.7km/h 67% 0in /  0.0mm
06:39 70.2 °F /  21.2 °C 58.6 °F /  14.8 °C 29.8in /  1008.7hPa SSO 2.6mph /  4.2km/h 6mph /  9.7km/h 67% 0in /  0.0mm
06:44 70.2 °F /  21.2 °C 58.8 °F /  14.9 °C 29.8in /  1008.7hPa SO 3.1mph /  5km/h 5mph /  8km/h 67.3% 0in /  0.0mm
06:49 70.3 °F /  21.3 °C 59.2 °F /  15.1 °C 29.8in /  1009.0hPa OSO 2.9mph /  4.6km/h 5mph /  8km/h 67.5% 0in /  0.0mm
06:54 70.3 °F /  21.3 °C 58.8 °F /  14.9 °C 29.8in /  1009.0hPa OSO 2.4mph /  3.9km/h 5.8mph /  9.3km/h 67% 0in /  0.0mm
06:59 70.3 °F /  21.3 °C 58.8 °F /  14.9 °C 29.8in /  1009.0hPa SO 2.5mph /  4.1km/h 6mph /  9.7km/h 67% 0in /  0.0mm
07:04 70.3 °F /  21.3 °C 58.8 °F /  14.9 °C 29.8in /  1009.1hPa OSO 2.9mph /  4.6km/h 5.2mph /  8.4km/h 67% 0in /  0.0mm
07:09 70.3 °F /  21.3 °C 59 °F /  15 °C 29.8in /  1009.1hPa OSO 2.9mph /  4.7km/h 5.9mph /  9.5km/h 67% 0in /  0.0mm
07:14 70.5 °F /  21.4 °C 59 °F /  15 °C 29.8in /  1009.1hPa OSO 2.9mph /  4.7km/h 8.1mph /  13km/h 67% 0in /  0.0mm
07:19 70.5 °F /  21.4 °C 58.6 °F /  14.8 °C 29.8in /  1009.3hPa SO 3.2mph /  5.2km/h 8mph /  12.9km/h 66% 0in /  0.0mm
07:24 70.7 °F /  21.5 °C 58.6 °F /  14.8 °C 29.8in /  1009.3hPa OSO 4mph /  6.5km/h 7mph /  11.3km/h 66% 0in /  0.0mm
07:29 70.5 °F /  21.4 °C 58.6 °F /  14.8 °C 29.8in /  1009.3hPa Oeste 3.9mph /  6.3km/h 7mph /  11.3km/h 66% 0in /  0.0mm
07:34 70.7 °F /  21.5 °C 58.6 °F /  14.8 °C 29.8in /  1009.3hPa Oeste 3.6mph /  5.8km/h 6.9mph /  11.1km/h 66% 0in /  0.0mm
07:39 70.5 °F /  21.4 °C 58.6 °F /  14.8 °C 29.8in /  1009.2hPa Oeste 3.6mph /  5.8km/h 8.1mph /  13km/h 66% 0in /  0.0mm
07:44 70.5 °F /  21.4 °C 58.6 °F /  14.8 °C 29.8in /  1009.2hPa OSO 3.6mph /  5.8km/h 10.4mph /  16.7km/h 66% 0in /  0.0mm
07:49 70.5 °F /  21.4 °C 58.6 °F /  14.8 °C 29.8in /  1009.4hPa OSO 4.3mph /  7km/h 13.8mph /  22.2km/h 66% 0in /  0.0mm
07:54 70.7 °F /  21.5 °C 58.8 °F /  14.9 °C 29.8in /  1009.4hPa OSO 5.9mph /  9.5km/h 14mph /  22.5km/h 66% 0in /  0.0mm
07:59 70.5 °F /  21.4 °C 58.8 °F /  14.9 °C 29.8in /  1009.4hPa OSO 6.3mph /  10.1km/h 10.4mph /  16.7km/h 66.4% 0in /  0.0mm
08:04 70.5 °F /  21.4 °C 59 °F /  15 °C 29.8in /  1009.6hPa SO 6.9mph /  11.1km/h 10.7mph /  17.2km/h 67% 0in /  0.0mm
08:09 70.5 °F /  21.4 °C 59 °F /  15 °C 29.8in /  1009.6hPa SO 6.3mph /  10.2km/h 11mph /  17.7km/h 67% 0in /  0.0mm
08:14 70.5 °F /  21.4 °C 59 °F /  15 °C 29.8in /  1009.6hPa OSO 5.2mph /  8.4km/h 10mph /  16.1km/h 67% 0in /  0.0mm
08:19 70.3 °F /  21.3 °C 59.2 °F /  15.1 °C 29.8in /  1009.7hPa Oeste 5.2mph /  8.4km/h 13.8mph /  22.2km/h 67.4% 0in /  0.0mm
08:24 70.3 °F /  21.3 °C 59.4 °F /  15.2 °C 29.8in /  1009.7hPa OSO 5.2mph /  8.4km/h 14.5mph /  23.3km/h 68.1% 0in /  0.0mm
08:29 70.2 °F /  21.2 °C 59.5 °F /  15.3 °C 29.8in /  1009.7hPa OSO 6.2mph /  9.9km/h 14mph /  22.5km/h 69% 0in /  0.0mm
08:34 70 °F /  21.1 °C 59.9 °F /  15.5 °C 29.8in /  1010.0hPa OSO 8.1mph /  13km/h 16.3mph /  26.2km/h 70.6% 0in /  0.0mm
08:39 69.4 °F /  20.8 °C 60.6 °F /  15.9 °C 29.8in /  1010.0hPa OSO 8.1mph /  13km/h 16mph /  25.7km/h 73.5% 0in /  0.0mm
08:44 68.9 °F /  20.5 °C 61.3 °F /  16.3 °C 29.8in /  1010.0hPa Oeste 8.1mph /  13km/h 12mph /  19.3km/h 76.5% 0.01in /  0.3mm
08:49 68.4 °F /  20.2 °C 61.7 °F /  16.5 °C 29.8in /  1010.2hPa Oeste 7.2mph /  11.6km/h 10mph /  16.1km/h 79.3% 0.02in /  0.5mm
08:54 67.8 °F /  19.9 °C 61.9 °F /  16.6 °C 29.8in /  1010.2hPa Oeste 5.4mph /  8.7km/h 8.5mph /  13.7km/h 81.6% 0.03in /  0.8mm
08:59 67.5 °F /  19.7 °C 62.2 °F /  16.8 °C 29.8in /  1010.2hPa Oeste 5.2mph /  8.3km/h 9mph /  14.5km/h 83.2% 0.04in /  1.0mm
09:04 67.3 °F /  19.6 °C 62.2 °F /  16.8 °C 29.8in /  1010.5hPa Oeste 4.7mph /  7.6km/h 7.4mph /  11.9km/h 84% 0.04in /  1.0mm
09:09 67.1 °F /  19.5 °C 62.2 °F /  16.8 °C 29.8in /  1010.5hPa Oeste 4.7mph /  7.6km/h 7mph /  11.3km/h 84.5% 0.04in /  1.0mm
09:14 66.9 °F /  19.4 °C 62.2 °F /  16.8 °C 29.8in /  1010.5hPa Oeste 4.7mph /  7.6km/h 7mph /  11.3km/h 84.9% 0.04in /  1.0mm
09:19 66.9 °F /  19.4 °C 62.2 °F /  16.8 °C 29.8in /  1010.5hPa Oeste 4.2mph /  6.7km/h 6mph /  9.7km/h 85% 0.04in /  1.0mm
09:24 67.1 °F /  19.5 °C 62.4 °F /  16.9 °C 29.8in /  1010.5hPa Oeste 3.1mph /  5km/h 6.2mph /  10km/h 85.2% 0.04in /  1.0mm
09:29 67.1 °F /  19.5 °C 62.8 °F /  17.1 °C 29.8in /  1010.5hPa Oeste 3.2mph /  5.2km/h 6mph /  9.7km/h 85.8% 0.04in /  1.0mm
09:34 67.3 °F /  19.6 °C 63 °F /  17.2 °C 29.9in /  1010.8hPa SO 3.6mph /  5.8km/h 8.1mph /  13km/h 86% 0.06in /  1.5mm
09:39 67.3 °F /  19.6 °C 62.8 °F /  17.1 °C 29.9in /  1010.8hPa SSO 3.9mph /  6.2km/h 9.7mph /  15.6km/h 85.8% 0.06in /  1.5mm
09:44 67.5 °F /  19.7 °C 62.8 °F /  17.1 °C 29.9in /  1010.8hPa SSO 4.3mph /  6.9km/h 10mph /  16.1km/h 85% 0.06in /  1.5mm
09:49 67.6 °F /  19.8 °C 63.1 °F /  17.3 °C 29.9in /  1010.8hPa Sur 4.8mph /  7.8km/h 10mph /  16.1km/h 85.3% 0.05in /  1.2mm
09:54 67.6 °F /  19.8 °C 63.1 °F /  17.3 °C 29.9in /  1010.8hPa SSO 5.9mph /  9.5km/h 9mph /  14.5km/h 85% 0.04in /  1.0mm
09:59 67.8 °F /  19.9 °C 63.1 °F /  17.3 °C 29.9in /  1010.8hPa SSO 5.7mph /  9.1km/h 8mph /  12.9km/h 85.2% 0.03in /  0.7mm
10:04 68 °F /  20 °C 63.7 °F /  17.6 °C 29.9in /  1010.9hPa SSO 5.2mph /  8.4km/h 7mph /  11.3km/h 85.9% 0.02in /  0.5mm
10:09 68 °F /  20 °C 63.3 °F /  17.4 °C 29.9in /  1010.9hPa SSO 5mph /  8.1km/h 7mph /  11.3km/h 84.7% 0.02in /  0.5mm
10:14 68.2 °F /  20.1 °C 63 °F /  17.2 °C 29.9in /  1010.9hPa SSO 4.7mph /  7.6km/h 8.1mph /  13km/h 83.3% 0.02in /  0.5mm
10:19 68.4 °F /  20.2 °C 63.1 °F /  17.3 °C 29.9in /  1011.1hPa SSO 4.6mph /  7.4km/h 8mph /  12.9km/h 83.4% 0.02in /  0.5mm
10:24 68.7 °F /  20.4 °C 63.3 °F /  17.4 °C 29.9in /  1011.1hPa SO 4.3mph /  6.9km/h 8.5mph /  13.7km/h 83% 0.02in /  0.5mm
10:29 69.3 °F /  20.7 °C 63.5 °F /  17.5 °C 29.9in /  1011.1hPa SO 4.3mph /  6.9km/h 9.7mph /  15.6km/h 82% 0.02in /  0.5mm
10:34 69.4 °F /  20.8 °C 63.1 °F /  17.3 °C 29.9in /  1011.1hPa SSO 4.3mph /  6.9km/h 10mph /  16.1km/h 80% 0in /  0.0mm
10:39 70 °F /  21.1 °C 63.1 °F /  17.3 °C 29.9in /  1011.1hPa SO 4.9mph /  7.9km/h 10mph /  16.1km/h 79% 0in /  0.0mm
10:44 70.3 °F /  21.3 °C 63.3 °F /  17.4 °C 29.9in /  1011.1hPa SO 6.2mph /  10km/h 10mph /  16.1km/h 78.7% 0in /  0.0mm
10:49 70.9 °F /  21.6 °C 63.5 °F /  17.5 °C 29.9in /  1011.1hPa Sur 5.6mph /  9km/h 7.4mph /  11.9km/h 77.5% 0in /  0.0mm
10:54 71.2 °F /  21.8 °C 63.3 °F /  17.4 °C 29.9in /  1010.8hPa OSO 4.3mph /  6.9km/h 8.1mph /  13km/h 75.8% 0in /  0.0mm
10:59 71.6 °F /  22 °C 63.5 °F /  17.5 °C 29.9in /  1010.8hPa SO 4.2mph /  6.8km/h 8mph /  12.9km/h 75.6% 0in /  0.0mm
11:04 72.1 °F /  22.3 °C 63.3 °F /  17.4 °C 29.9in /  1010.9hPa SSO 4mph /  6.5km/h 6mph /  9.7km/h 73.8% 0in /  0.0mm
11:09 72.5 °F /  22.5 °C 63.1 °F /  17.3 °C 29.9in /  1010.9hPa SSE 3.7mph /  6km/h 8.5mph /  13.7km/h 72.2% 0in /  0.0mm
11:14 72.9 °F /  22.7 °C 63.1 °F /  17.3 °C 29.9in /  1010.9hPa Sur 3.1mph /  5km/h 9mph /  14.5km/h 71.6% 0in /  0.0mm
11:19 73.2 °F /  22.9 °C 62.6 °F /  17 °C 29.9in /  1010.9hPa Sur 3mph /  4.9km/h 7mph /  11.3km/h 69.5% 0in /  0.0mm
11:24 73.8 °F /  23.2 °C 62.8 °F /  17.1 °C 29.9in /  1010.9hPa Sur 2.9mph /  4.7km/h 6mph /  9.7km/h 68.5% 0in /  0.0mm
11:29 74.1 °F /  23.4 °C 61.9 °F /  16.6 °C 29.9in /  1010.9hPa SO 2.9mph /  4.7km/h 6.9mph /  11.1km/h 65.9% 0in /  0.0mm
11:34 74.3 °F /  23.5 °C 61.9 °F /  16.6 °C 29.9in /  1010.9hPa Oeste 2.9mph /  4.7km/h 7mph /  11.3km/h 65.2% 0in /  0.0mm
11:39 74.7 °F /  23.7 °C 61.9 °F /  16.6 °C 29.9in /  1010.9hPa Oeste 3.1mph /  5km/h 9.7mph /  15.6km/h 64.5% 0in /  0.0mm
11:44 74.5 °F /  23.6 °C 61.2 °F /  16.2 °C 29.9in /  1010.9hPa Oeste 3.6mph /  5.8km/h 10mph /  16.1km/h 63.1% 0in /  0.0mm
11:49 74.8 °F /  23.8 °C 61.7 °F /  16.5 °C 29.9in /  1011.0hPa Oeste 3.7mph /  6km/h 7mph /  11.3km/h 64% 0in /  0.0mm
11:54 75.2 °F /  24 °C 61.9 °F /  16.6 °C 29.9in /  1011.0hPa NO 4mph /  6.5km/h 6.9mph /  11.1km/h 63.6% 0in /  0.0mm
11:59 75.6 °F /  24.2 °C 60.6 °F /  15.9 °C 29.9in /  1011.0hPa Oeste 3.9mph /  6.2km/h 9.2mph /  14.8km/h 60% 0in /  0.0mm
12:04 75.6 °F /  24.2 °C 60.6 °F /  15.9 °C 29.9in /  1011.0hPa Oeste 3.6mph /  5.8km/h 9.2mph /  14.8km/h 60% 0in /  0.0mm
12:09 75.9 °F /  24.4 °C 61 °F /  16.1 °C 29.9in /  1010.9hPa SO 3.6mph /  5.8km/h 9mph /  14.5km/h 59.8% 0in /  0.0mm
12:14 76.5 °F /  24.7 °C 61 °F /  16.1 °C 29.9in /  1010.9hPa SSE 3.6mph /  5.8km/h 6mph /  9.7km/h 58.7% 0in /  0.0mm
12:19 77 °F /  25 °C 61.2 °F /  16.2 °C 29.9in /  1010.9hPa SSE 3.4mph /  5.5km/h 8.1mph /  13km/h 58% 0in /  0.0mm
12:24 77.4 °F /  25.2 °C 61.2 °F /  16.2 °C 29.9in /  1010.8hPa SO 3.1mph /  5km/h 8mph /  12.9km/h 57.3% 0in /  0.0mm
12:29 77.7 °F /  25.4 °C 61 °F /  16.1 °C 29.9in /  1010.8hPa SSE 3.3mph /  5.3km/h 7mph /  11.3km/h 56.6% 0in /  0.0mm
12:34 78.3 °F /  25.7 °C 60.3 °F /  15.7 °C 29.9in /  1010.8hPa Este 3.6mph /  5.8km/h 6.4mph /  10.3km/h 53.9% 0in /  0.0mm
12:39 78.8 °F /  26 °C 60.3 °F /  15.7 °C 29.8in /  1010.6hPa Este 3.4mph /  5.5km/h 8.1mph /  13km/h 53.2% 0in /  0.0mm
12:44 79 °F /  26.1 °C 59.4 °F /  15.2 °C 29.8in /  1010.6hPa ESE 3.1mph /  5km/h 8.1mph /  13km/h 51.2% 0in /  0.0mm
12:49 79.2 °F /  26.2 °C 59.2 °F /  15.1 °C 29.8in /  1010.6hPa ESE 3.3mph /  5.3km/h 8mph /  12.9km/h 50.4% 0in /  0.0mm
12:54 79.5 °F /  26.4 °C 57.6 °F /  14.2 °C 29.8in /  1010.5hPa SSO 3.6mph /  5.8km/h 7.4mph /  11.9km/h 47.1% 0in /  0.0mm
12:59 79.9 °F /  26.6 °C 56.1 °F /  13.4 °C 29.8in /  1010.5hPa Oeste 3.4mph /  5.4km/h 7mph /  11.3km/h 44.1% 0in /  0.0mm
13:04 80.2 °F /  26.8 °C 54.1 °F /  12.3 °C 29.8in /  1010.5hPa SO 2.9mph /  4.7km/h 10mph /  16.1km/h 40.5% 0in /  0.0mm
13:09 80.4 °F /  26.9 °C 54 °F /  12.2 °C 29.8in /  1010.5hPa SO 3.9mph /  6.2km/h 10.7mph /  17.2km/h 40.1% 0in /  0.0mm
13:14 80.4 °F /  26.9 °C 53.8 °F /  12.1 °C 29.8in /  1010.5hPa SO 5.9mph /  9.5km/h 11mph /  17.7km/h 39.8% 0in /  0.0mm
13:19 80.6 °F /  27 °C 53.6 °F /  12 °C 29.8in /  1010.5hPa Sur 5.3mph /  8.5km/h 9mph /  14.5km/h 39.5% 0in /  0.0mm
13:24 81.1 °F /  27.3 °C 54 °F /  12.2 °C 29.8in /  1010.4hPa NE 4mph /  6.5km/h 5mph /  8km/h 39.2% 0in /  0.0mm
13:29 81.9 °F /  27.7 °C 54 °F /  12.2 °C 29.8in /  1010.4hPa SSE 3.4mph /  5.4km/h 6.2mph /  10km/h 38.3% 0in /  0.0mm
13:34 82.4 °F /  28 °C 53.6 °F /  12 °C 29.8in /  1010.4hPa ONO 2mph /  3.2km/h 8.5mph /  13.7km/h 37.1% 0in /  0.0mm
13:39 82.6 °F /  28.1 °C 52.2 °F /  11.2 °C 29.8in /  1010.2hPa Oeste 2.7mph /  4.3km/h 9.2mph /  14.8km/h 35% 0in /  0.0mm
13:44 82.6 °F /  28.1 °C 52.2 °F /  11.2 °C 29.8in /  1010.2hPa OSO 4mph /  6.5km/h 9mph /  14.5km/h 35.1% 0in /  0.0mm
13:49 82.8 °F /  28.2 °C 52.7 °F /  11.5 °C 29.8in /  1010.2hPa SE 4.1mph /  6.6km/h 9.7mph /  15.6km/h 35.5% 0in /  0.0mm
13:54 82.9 °F /  28.3 °C 55.6 °F /  13.1 °C 29.8in /  1010.1hPa ENE 4.3mph /  6.9km/h 10mph /  16.1km/h 39.2% 0in /  0.0mm
13:59 83.3 °F /  28.5 °C 55.4 °F /  13 °C 29.8in /  1010.1hPa Este 4mph /  6.5km/h 9mph /  14.5km/h 38.7% 0in /  0.0mm
14:04 83.5 °F /  28.6 °C 56.7 °F /  13.7 °C 29.8in /  1010.1hPa ESE 3.6mph /  5.8km/h 9.2mph /  14.8km/h 40.2% 0in /  0.0mm
14:09 83.3 °F /  28.5 °C 59 °F /  15 °C 29.8in /  1010.0hPa ENE 3.9mph /  6.2km/h 9mph /  14.5km/h 44% 0in /  0.0mm
14:14 83.1 °F /  28.4 °C 59.5 °F /  15.3 °C 29.8in /  1010.0hPa NNE 4.3mph /  6.9km/h 10.4mph /  16.7km/h 44.9% 0in /  0.0mm
14:19 83.3 °F /  28.5 °C 60.1 °F /  15.6 °C 29.8in /  1010.0hPa SSE 4.7mph /  7.5km/h 10.4mph /  16.7km/h 45.6% 0in /  0.0mm
14:24 83.5 °F /  28.6 °C 61.2 °F /  16.2 °C 29.8in /  1009.9hPa SSE 5.4mph /  8.7km/h 12.7mph /  20.4km/h 47.2% 0in /  0.0mm
14:29 83.3 °F /  28.5 °C 61.7 °F /  16.5 °C 29.8in /  1009.9hPa SE 5.9mph /  9.5km/h 13mph /  20.9km/h 48% 0in /  0.0mm
14:34 83.1 °F /  28.4 °C 61.5 °F /  16.4 °C 29.8in /  1009.9hPa ESE 6.9mph /  11.1km/h 13.8mph /  22.2km/h 48.2% 0in /  0.0mm
14:39 83.1 °F /  28.4 °C 61.3 °F /  16.3 °C 29.8in /  1009.8hPa Este 7.1mph /  11.4km/h 14mph /  22.5km/h 47.8% 0in /  0.0mm
14:44 83.3 °F /  28.5 °C 61.5 °F /  16.4 °C 29.8in /  1009.8hPa ESE 7.4mph /  11.9km/h 14mph /  22.5km/h 47.9% 0in /  0.0mm
14:49 83.3 °F /  28.5 °C 61.5 °F /  16.4 °C 29.8in /  1009.8hPa SE 7.6mph /  12.3km/h 14mph /  22.5km/h 47.9% 0in /  0.0mm
14:54 83.5 °F /  28.6 °C 61 °F /  16.1 °C 29.8in /  1009.6hPa ESE 8.1mph /  13km/h 13mph /  20.9km/h 46.6% 0in /  0.0mm
14:59 83.7 °F /  28.7 °C 59.5 °F /  15.3 °C 29.8in /  1009.6hPa SE 8.3mph /  13.3km/h 16.1mph /  25.9km/h 44.3% 0in /  0.0mm
15:04 84 °F /  28.9 °C 59 °F /  15 °C 29.8in /  1009.6hPa SE 8.5mph /  13.7km/h 18.4mph /  29.6km/h 42.7% 0in /  0.0mm
15:09 84.4 °F /  29.1 °C 58.6 °F /  14.8 °C 29.8in /  1009.4hPa SE 8.9mph /  14.4km/h 18mph /  29km/h 41.8% 0in /  0.0mm
15:14 84.4 °F /  29.1 °C 58.8 °F /  14.9 °C 29.8in /  1009.4hPa SE 10mph /  16.1km/h 17mph /  27.4km/h 42% 0in /  0.0mm
15:19 84.4 °F /  29.1 °C 59.9 °F /  15.5 °C 29.8in /  1009.4hPa ESE 9.1mph /  14.7km/h 17mph /  27.4km/h 43.7% 0in /  0.0mm
15:24 84.6 °F /  29.2 °C 59.9 °F /  15.5 °C 29.8in /  1009.4hPa SE 7.4mph /  11.9km/h 22.3mph /  35.9km/h 43.6% 0in /  0.0mm
15:29 85.1 °F /  29.5 °C 59.7 °F /  15.4 °C 29.8in /  1009.4hPa SSE 7.8mph /  12.6km/h 22mph /  35.4km/h 42.6% 0in /  0.0mm
15:34 85.3 °F /  29.6 °C 59.5 °F /  15.3 °C 29.8in /  1009.4hPa SSE 8.7mph /  14km/h 15.2mph /  24.5km/h 42% 0in /  0.0mm
15:39 84.7 °F /  29.3 °C 58.8 °F /  14.9 °C 29.8in /  1009.2hPa Sur 9.2mph /  14.8km/h 19.6mph /  31.5km/h 41.7% 0in /  0.0mm
15:44 84.2 °F /  29 °C 58.6 °F /  14.8 °C 29.8in /  1009.2hPa SSE 10.2mph /  16.4km/h 20mph /  32.2km/h 42% 0in /  0.0mm
15:49 84.4 °F /  29.1 °C 58.3 °F /  14.6 °C 29.8in /  1009.2hPa SSE 10.2mph /  16.4km/h 17.3mph /  27.8km/h 41.2% 0in /  0.0mm
15:54 84.6 °F /  29.2 °C 58.3 °F /  14.6 °C 29.8in /  1009.2hPa SE 10.2mph /  16.4km/h 17mph /  27.4km/h 41% 0in /  0.0mm
15:59 84.9 °F /  29.4 °C 58.1 °F /  14.5 °C 29.8in /  1009.2hPa ESE 9.6mph /  15.5km/h 17.3mph /  27.8km/h 40.3% 0in /  0.0mm
16:04 84.9 °F /  29.4 °C 57.7 °F /  14.3 °C 29.8in /  1009.3hPa SE 8.7mph /  14km/h 18.5mph /  29.8km/h 39.8% 0in /  0.0mm
16:09 84.7 °F /  29.3 °C 57.6 °F /  14.2 °C 29.8in /  1009.3hPa SE 9.1mph /  14.7km/h 19mph /  30.6km/h 39.6% 0in /  0.0mm
16:14 84.7 °F /  29.3 °C 57.6 °F /  14.2 °C 29.8in /  1009.3hPa ESE 10mph /  16.1km/h 17.5mph /  28.2km/h 39.7% 0in /  0.0mm
16:19 84.9 °F /  29.4 °C 57.7 °F /  14.3 °C 29.8in /  1009.3hPa ESE 10.3mph /  16.5km/h 17.3mph /  27.8km/h 40% 0in /  0.0mm
16:24 85.1 °F /  29.5 °C 57.6 °F /  14.2 °C 29.8in /  1009.2hPa SE 10.7mph /  17.2km/h 20.7mph /  33.3km/h 39.3% 0in /  0.0mm
16:29 84.7 °F /  29.3 °C 57.2 °F /  14 °C 29.8in /  1009.2hPa SE 10.7mph /  17.2km/h 21mph /  33.8km/h 39% 0in /  0.0mm
16:34 84.6 °F /  29.2 °C 57.4 °F /  14.1 °C 29.8in /  1009.2hPa SE 10.7mph /  17.2km/h 19mph /  30.6km/h 39.8% 0in /  0.0mm
16:39 84.7 °F /  29.3 °C 57 °F /  13.9 °C 29.8in /  1009.1hPa SE 10.9mph /  17.6km/h 17.3mph /  27.8km/h 39% 0in /  0.0mm
16:44 84.7 °F /  29.3 °C 56.8 °F /  13.8 °C 29.8in /  1009.1hPa SE 11.4mph /  18.4km/h 17.3mph /  27.8km/h 38.7% 0in /  0.0mm
16:49 84.7 °F /  29.3 °C 56.3 °F /  13.5 °C 29.8in /  1009.1hPa SE 11.2mph /  18km/h 19mph /  30.6km/h 38% 0in /  0.0mm
16:54 84.7 °F /  29.3 °C 56.3 °F /  13.5 °C 29.8in /  1009.0hPa SE 10.7mph /  17.2km/h 19mph /  30.6km/h 38% 0in /  0.0mm
16:59 84.7 °F /  29.3 °C 56.3 °F /  13.5 °C 29.8in /  1009.0hPa SE 10.9mph /  17.6km/h 19mph /  30.6km/h 38% 0in /  0.0mm
17:04 84.7 °F /  29.3 °C 56.3 °F /  13.5 °C 29.8in /  1009.0hPa SE 11.4mph /  18.4km/h 17.5mph /  28.2km/h 38% 0in /  0.0mm
17:09 84.6 °F /  29.2 °C 55.6 °F /  13.1 °C 29.8in /  1009.0hPa SE 11.4mph /  18.3km/h 18.4mph /  29.6km/h 37.2% 0in /  0.0mm
17:14 84.7 °F /  29.3 °C 55.9 °F /  13.3 °C 29.8in /  1009.0hPa SE 11.2mph /  18km/h 18mph /  29km/h 37.3% 0in /  0.0mm
17:19 84.9 °F /  29.4 °C 55.4 °F /  13 °C 29.8in /  1009.0hPa SE 10.4mph /  16.7km/h 16.1mph /  25.9km/h 36.7% 0in /  0.0mm
17:24 84.9 °F /  29.4 °C 55.8 °F /  13.2 °C 29.8in /  1008.9hPa ESE 8.7mph /  14km/h 15.2mph /  24.5km/h 37% 0in /  0.0mm
17:29 85.1 °F /  29.5 °C 55.9 °F /  13.3 °C 29.8in /  1008.9hPa SE 8.6mph /  13.9km/h 15.6mph /  25.1km/h 37% 0in /  0.0mm
17:34 85.1 °F /  29.5 °C 55.9 °F /  13.3 °C 29.8in /  1008.9hPa ESE 8.5mph /  13.7km/h 17.3mph /  27.8km/h 37% 0in /  0.0mm
17:39 84.9 °F /  29.4 °C 56.1 °F /  13.4 °C 29.8in /  1008.9hPa SE 8.9mph /  14.3km/h 17mph /  27.4km/h 37.4% 0in /  0.0mm
17:44 85.1 °F /  29.5 °C 55.9 °F /  13.3 °C 29.8in /  1008.9hPa SE 9.7mph /  15.6km/h 15mph /  24.1km/h 37.2% 0in /  0.0mm
17:49 84.7 °F /  29.3 °C 56.1 °F /  13.4 °C 29.8in /  1008.9hPa SE 9.7mph /  15.6km/h 15.2mph /  24.5km/h 37.7% 0in /  0.0mm
17:54 84.9 °F /  29.4 °C 56.5 °F /  13.6 °C 29.8in /  1008.8hPa ESE 9.7mph /  15.6km/h 15.2mph /  24.5km/h 38% 0in /  0.0mm
17:59 85.3 °F /  29.6 °C 56.7 °F /  13.7 °C 29.8in /  1008.8hPa ESE 9.5mph /  15.3km/h 20.1mph /  32.3km/h 38% 0in /  0.0mm
18:04 84.7 °F /  29.3 °C 56.3 °F /  13.5 °C 29.8in /  1008.8hPa ESE 9.2mph /  14.8km/h 22.3mph /  35.9km/h 38% 0in /  0.0mm
18:09 84.4 °F /  29.1 °C 56.1 °F /  13.4 °C 29.8in /  1008.8hPa ESE 10.3mph /  16.6km/h 22mph /  35.4km/h 38.2% 0in /  0.0mm
18:14 84.4 °F /  29.1 °C 56.1 °F /  13.4 °C 29.8in /  1008.8hPa ESE 12.5mph /  20.1km/h 19.6mph /  31.5km/h 38.1% 0in /  0.0mm
18:19 83.8 °F /  28.8 °C 55.6 °F /  13.1 °C 29.8in /  1008.8hPa ESE 12.4mph /  20km/h 20mph /  32.2km/h 38% 0in /  0.0mm
18:24 83.8 °F /  28.8 °C 55.6 °F /  13.1 °C 29.8in /  1008.8hPa ESE 12.3mph /  19.8km/h 18.5mph /  29.8km/h 38.1% 0in /  0.0mm
18:29 83.8 °F /  28.8 °C 55.4 °F /  13 °C 29.8in /  1008.8hPa ESE 11.7mph /  18.9km/h 19mph /  30.6km/h 37.9% 0in /  0.0mm
18:34 84 °F /  28.9 °C 55.4 °F /  13 °C 29.8in /  1008.8hPa SE 10.7mph /  17.2km/h 17.8mph /  28.6km/h 37.6% 0in /  0.0mm
18:39 84.2 °F /  29 °C 54.9 °F /  12.7 °C 29.8in /  1008.7hPa SE 10.4mph /  16.7km/h 18.4mph /  29.6km/h 36.6% 0in /  0.0mm
18:44 84.2 °F /  29 °C 54.3 °F /  12.4 °C 29.8in /  1008.7hPa SE 9.7mph /  15.6km/h 18.4mph /  29.6km/h 36% 0in /  0.0mm
18:49 83.8 °F /  28.8 °C 54.1 °F /  12.3 °C 29.8in /  1008.7hPa SE 9.9mph /  15.9km/h 18mph /  29km/h 36.2% 0in /  0.0mm
18:54 83.8 °F /  28.8 °C 54.5 °F /  12.5 °C 29.8in /  1008.7hPa SE 10.2mph /  16.4km/h 15mph /  24.1km/h 36.7% 0in /  0.0mm
18:59 83.8 °F /  28.8 °C 54.5 °F /  12.5 °C 29.8in /  1008.7hPa ESE 9.6mph /  15.5km/h 16.1mph /  25.9km/h 36.6% 0in /  0.0mm
19:04 83.8 °F /  28.8 °C 54.7 °F /  12.6 °C 29.8in /  1008.8hPa ESE 8.7mph /  14km/h 16mph /  25.7km/h 36.9% 0in /  0.0mm
19:09 83.5 °F /  28.6 °C 54.5 °F /  12.5 °C 29.8in /  1008.8hPa ESE 8.9mph /  14.3km/h 17mph /  27.4km/h 37% 0in /  0.0mm
19:14 82.9 °F /  28.3 °C 54.1 °F /  12.3 °C 29.8in /  1008.8hPa ESE 9.2mph /  14.8km/h 17.3mph /  27.8km/h 37.1% 0in /  0.0mm
19:19 82.9 °F /  28.3 °C 54.1 °F /  12.3 °C 29.8in /  1008.9hPa ESE 9.4mph /  15.2km/h 16mph /  25.7km/h 37.1% 0in /  0.0mm
19:24 82.9 °F /  28.3 °C 54.1 °F /  12.3 °C 29.8in /  1008.9hPa ESE 10mph /  16.1km/h 18.1mph /  29.1km/h 37.2% 0in /  0.0mm
19:29 82.8 °F /  28.2 °C 54.3 °F /  12.4 °C 29.8in /  1008.9hPa ESE 10.3mph /  16.5km/h 18.4mph /  29.6km/h 37.8% 0in /  0.0mm
19:34 82.8 °F /  28.2 °C 54.5 °F /  12.5 °C 29.8in /  1008.9hPa ESE 10.7mph /  17.2km/h 18mph /  29km/h 37.9% 0in /  0.0mm
19:39 82.9 °F /  28.3 °C 54.5 °F /  12.5 °C 29.8in /  1008.9hPa ESE 10mph /  16.1km/h 15mph /  24.1km/h 37.8% 0in /  0.0mm
19:44 82.9 °F /  28.3 °C 54.7 °F /  12.6 °C 29.8in /  1008.9hPa ESE 8.5mph /  13.7km/h 15mph /  24.1km/h 38% 0in /  0.0mm
19:49 82.8 °F /  28.2 °C 54.7 °F /  12.6 °C 29.8in /  1009.0hPa ESE 8.7mph /  14km/h 15.2mph /  24.5km/h 38% 0in /  0.0mm
19:54 82.8 °F /  28.2 °C 54.7 °F /  12.6 °C 29.8in /  1009.0hPa ESE 9.2mph /  14.8km/h 15mph /  24.1km/h 38% 0in /  0.0mm
19:59 82.9 °F /  28.3 °C 54.7 °F /  12.6 °C 29.8in /  1009.0hPa ESE 8.5mph /  13.7km/h 15mph /  24.1km/h 38% 0in /  0.0mm
20:04 82.9 °F /  28.3 °C 54.7 °F /  12.6 °C 29.8in /  1009.2hPa ESE 7.4mph /  11.9km/h 11.8mph /  19km/h 37.9% 0in /  0.0mm
20:09 82.9 °F /  28.3 °C 54.7 °F /  12.6 °C 29.8in /  1009.2hPa ESE 7mph /  11.3km/h 12mph /  19.3km/h 38% 0in /  0.0mm
20:14 82.8 °F /  28.2 °C 54.7 °F /  12.6 °C 29.8in /  1009.2hPa ESE 6.2mph /  10km/h 10.4mph /  16.7km/h 38% 0in /  0.0mm
20:19 82.6 °F /  28.1 °C 54.3 °F /  12.4 °C 29.8in /  1009.3hPa ESE 6.3mph /  10.1km/h 13mph /  20.9km/h 38% 0in /  0.0mm
20:24 82 °F /  27.8 °C 54.1 °F /  12.3 °C 29.8in /  1009.3hPa ESE 6.4mph /  10.3km/h 13mph /  20.9km/h 38.1% 0in /  0.0mm
20:29 81.9 °F /  27.7 °C 54.1 °F /  12.3 °C 29.8in /  1009.3hPa ESE 6.7mph /  10.8km/h 12mph /  19.3km/h 38.6% 0in /  0.0mm
20:34 81.7 °F /  27.6 °C 54.3 °F /  12.4 °C 29.8in /  1009.4hPa ESE 7.4mph /  11.9km/h 12mph /  19.3km/h 39% 0in /  0.0mm
20:39 81.3 °F /  27.4 °C 54.3 °F /  12.4 °C 29.8in /  1009.4hPa ESE 7.1mph /  11.4km/h 10.4mph /  16.7km/h 39.4% 0in /  0.0mm
20:44 81.3 °F /  27.4 °C 54.7 °F /  12.6 °C 29.8in /  1009.4hPa ESE 6.4mph /  10.3km/h 9.2mph /  14.8km/h 40% 0in /  0.0mm
20:49 81.1 °F /  27.3 °C 54.5 °F /  12.5 °C 29.8in /  1009.5hPa ESE 6.2mph /  10km/h 9.2mph /  14.8km/h 40% 0in /  0.0mm
20:54 81.1 °F /  27.3 °C 54.7 °F /  12.6 °C 29.8in /  1009.5hPa ESE 5.9mph /  9.5km/h 9.2mph /  14.8km/h 40.2% 0in /  0.0mm
20:59 81 °F /  27.2 °C 55 °F /  12.8 °C 29.8in /  1009.5hPa ESE 6mph /  9.7km/h 11.5mph /  18.5km/h 41% 0in /  0.0mm
21:04 80.8 °F /  27.1 °C 54.9 °F /  12.7 °C 29.8in /  1009.7hPa ESE 6.2mph /  10km/h 12mph /  19.3km/h 41% 0in /  0.0mm
21:09 80.6 °F /  27 °C 54.9 °F /  12.7 °C 29.8in /  1009.7hPa ESE 6.2mph /  10km/h 10.4mph /  16.7km/h 41.3% 0in /  0.0mm
21:14 80.2 °F /  26.8 °C 55.2 °F /  12.9 °C 29.8in /  1009.7hPa ESE 6.2mph /  10km/h 10mph /  16.1km/h 42% 0in /  0.0mm
21:19 80.1 °F /  26.7 °C 55 °F /  12.8 °C 29.8in /  1009.7hPa ESE 5.9mph /  9.5km/h 9mph /  14.5km/h 42% 0in /  0.0mm
21:24 80.1 °F /  26.7 °C 55.4 °F /  13 °C 29.8in /  1009.7hPa SE 5.4mph /  8.7km/h 8mph /  12.9km/h 42.9% 0in /  0.0mm
21:29 80.1 °F /  26.7 °C 55.4 °F /  13 °C 29.8in /  1009.7hPa ESE 4.8mph /  7.8km/h 7.4mph /  11.9km/h 43% 0in /  0.0mm
21:34 79.9 °F /  26.6 °C 55.4 °F /  13 °C 29.8in /  1009.8hPa ESE 3.6mph /  5.8km/h 7.4mph /  11.9km/h 43% 0in /  0.0mm
21:39 79.3 °F /  26.3 °C 55.4 °F /  13 °C 29.8in /  1009.8hPa ESE 4.2mph /  6.7km/h 8.1mph /  13km/h 43.7% 0in /  0.0mm
21:44 79.2 °F /  26.2 °C 55.4 °F /  13 °C 29.8in /  1009.8hPa ESE 5.2mph /  8.4km/h 8mph /  12.9km/h 44% 0in /  0.0mm
21:49 79 °F /  26.1 °C 55.2 °F /  12.9 °C 29.8in /  1010.0hPa SE 4.8mph /  7.7km/h 7mph /  11.3km/h 44.2% 0in /  0.0mm
21:54 79 °F /  26.1 °C 55.8 °F /  13.2 °C 29.8in /  1010.0hPa SE 4mph /  6.5km/h 6.9mph /  11.1km/h 44.9% 0in /  0.0mm
21:59 78.6 °F /  25.9 °C 55.4 °F /  13 °C 29.8in /  1010.0hPa SE 4.3mph /  6.9km/h 7.6mph /  12.2km/h 45% 0in /  0.0mm
22:04 78.4 °F /  25.8 °C 55.6 °F /  13.1 °C 29.8in /  1010.3hPa SSE 4.7mph /  7.6km/h 8.1mph /  13km/h 45.5% 0in /  0.0mm
22:09 78.4 °F /  25.8 °C 55.9 °F /  13.3 °C 29.8in /  1010.3hPa SSE 4.2mph /  6.7km/h 6mph /  9.7km/h 46% 0in /  0.0mm
22:14 78.4 °F /  25.8 °C 55.8 °F /  13.2 °C 29.8in /  1010.3hPa SSE 3.1mph /  5km/h 5mph /  8km/h 45.8% 0in /  0.0mm
22:19 78.4 °F /  25.8 °C 55.9 °F /  13.3 °C 29.8in /  1010.5hPa SE 2.7mph /  4.4km/h 4.6mph /  7.4km/h 46% 0in /  0.0mm
22:24 78.4 °F /  25.8 °C 55.4 °F /  13 °C 29.8in /  1010.5hPa Sur 2mph /  3.2km/h 5.8mph /  9.3km/h 45.2% 0in /  0.0mm
22:29 78.4 °F /  25.8 °C 54.1 °F /  12.3 °C 29.8in /  1010.5hPa Oeste 2mph /  3.2km/h 6mph /  9.7km/h 43.1% 0in /  0.0mm
22:34 78.8 °F /  26 °C 54.3 °F /  12.4 °C 29.8in /  1010.6hPa SO 2mph /  3.2km/h 5mph /  8km/h 42.9% 0in /  0.0mm
22:39 79 °F /  26.1 °C 54.3 °F /  12.4 °C 29.8in /  1010.6hPa SO 2.1mph /  3.4km/h 6.9mph /  11.1km/h 42.6% 0in /  0.0mm
22:44 78.8 °F /  26 °C 53.8 °F /  12.1 °C 29.8in /  1010.6hPa Oeste 2.4mph /  3.9km/h 7mph /  11.3km/h 42% 0in /  0.0mm
22:49 78.6 °F /  25.9 °C 53.6 °F /  12 °C 29.9in /  1010.9hPa Oeste 3mph /  4.9km/h 7mph /  11.3km/h 42% 0in /  0.0mm
22:54 78.3 °F /  25.7 °C 53.4 °F /  11.9 °C 29.9in /  1010.9hPa Oeste 4.3mph /  6.9km/h 8.1mph /  13km/h 42.3% 0in /  0.0mm
22:59 77.9 °F /  25.5 °C 53.6 °F /  12 °C 29.9in /  1010.9hPa ONO 4.2mph /  6.8km/h 8mph /  12.9km/h 43% 0in /  0.0mm
23:04 77.5 °F /  25.3 °C 53.6 °F /  12 °C 29.9in /  1011.1hPa Oeste 4mph /  6.5km/h 7mph /  11.3km/h 43.4% 0in /  0.0mm
23:09 77.4 °F /  25.2 °C 53.6 °F /  12 °C 29.9in /  1011.1hPa SO 4.1mph /  6.6km/h 8.7mph /  14km/h 44% 0in /  0.0mm
23:14 77.2 °F /  25.1 °C 53.6 °F /  12 °C 29.9in /  1011.1hPa SO 4.3mph /  6.9km/h 10.2mph /  16.4km/h 44% 0in /  0.0mm
23:19 77 °F /  25 °C 53.4 °F /  11.9 °C 29.9in /  1011.2hPa SO 4.4mph /  7.1km/h 10mph /  16.1km/h 44% 0in /  0.0mm
23:24 76.8 °F /  24.9 °C 53.4 °F /  11.9 °C 29.9in /  1011.2hPa SO 4.7mph /  7.6km/h 9mph /  14.5km/h 44% 0in /  0.0mm
23:29 76.8 °F /  24.9 °C 53.2 °F /  11.8 °C 29.9in /  1011.2hPa SSO 4.7mph /  7.6km/h 9mph /  14.5km/h 44% 0in /  0.0mm
23:34 76.8 °F /  24.9 °C 53.2 °F /  11.8 °C 29.9in /  1011.3hPa SSO 4.7mph /  7.6km/h 9.2mph /  14.8km/h 44% 0in /  0.0mm
23:39 76.6 °F /  24.8 °C 53.2 °F /  11.8 °C 29.9in /  1011.3hPa SSO 5.2mph /  8.4km/h 11.8mph /  19km/h 44.2% 0in /  0.0mm
23:44 76.6 °F /  24.8 °C 53.6 °F /  12 °C 29.9in /  1011.3hPa SO 6.2mph /  10km/h 12mph /  19.3km/h 45% 0in /  0.0mm
23:49 76.5 °F /  24.7 °C 53.4 °F /  11.9 °C 29.9in /  1011.6hPa SSO 5.8mph /  9.4km/h 9.2mph /  14.8km/h 45% 0in /  0.0mm
23:54 76.3 °F /  24.6 °C 53.6 °F /  12 °C 29.9in /  1011.6hPa SSO 5.2mph /  8.4km/h 9.7mph /  15.6km/h 45.3% 0in /  0.0mm
23:59 75.9 °F /  24.4 °C 53.8 °F /  12.1 °C 29.9in /  1011.6hPa SSO 5mph /  8.1km/h 10mph /  16.1km/h 46% 0in /  0.0mm
Murcia-Puente Tocinos, España
Compliments of Weather Underground - 3 mb

La estación de MeteoMurcia.com, publica sus datos en los siguientes proyectos:

Weather Underground PWS IMURCIAP2 Meteoclimatic www.awekas.at

W3Counter
Web Analytics